sensor_id;sensor_type;location;lat;lon;timestamp;temperature;humidity
71942;DHT22;59997;53.300;-6.260;2022-09-21T06:12:01;12.32;84.32
71942;DHT22;59997;53.300;-6.260;2022-09-21T06:14:26;12.21;84.77
71942;DHT22;59997;53.300;-6.260;2022-09-21T06:16:52;12.06;85.21
71942;DHT22;59997;53.300;-6.260;2022-09-21T06:19:18;12.01;85.73
71942;DHT22;59997;53.300;-6.260;2022-09-21T06:21:43;12.15;84.79
71942;DHT22;59997;53.300;-6.260;2022-09-21T06:24:09;12.06;84.94
71942;DHT22;59997;53.300;-6.260;2022-09-21T06:26:35;12.01;85.84
71942;DHT22;59997;53.300;-6.260;2022-09-21T06:29:01;12.19;85.18
71942;DHT22;59997;53.300;-6.260;2022-09-21T06:31:27;12.34;84.75
71942;DHT22;59997;53.300;-6.260;2022-09-21T06:33:52;12.44;83.81
71942;DHT22;59997;53.300;-6.260;2022-09-21T06:36:18;12.64;82.85
71942;DHT22;59997;53.300;-6.260;2022-09-21T06:38:43;12.95;81.73
71942;DHT22;59997;53.300;-6.260;2022-09-21T06:41:09;13.13;81.44
71942;DHT22;59997;53.300;-6.260;2022-09-21T06:43:34;13.32;80.29
71942;DHT22;59997;53.300;-6.260;2022-09-21T06:46:01;13.61;78.79
71942;DHT22;59997;53.300;-6.260;2022-09-21T06:48:28;13.69;79.21
71942;DHT22;59997;53.300;-6.260;2022-09-21T06:50:58;13.78;78.60
71942;DHT22;59997;53.300;-6.260;2022-09-21T06:53:24;13.81;78.12
71942;DHT22;59997;53.300;-6.260;2022-09-21T06:55:50;13.96;77.54
71942;DHT22;59997;53.300;-6.260;2022-09-21T06:58:16;13.98;77.20
71942;DHT22;59997;53.300;-6.260;2022-09-21T07:00:42;14.10;77.35
71942;DHT22;59997;53.300;-6.260;2022-09-21T07:03:10;14.33;75.55
71942;DHT22;59997;53.300;-6.260;2022-09-21T07:05:38;14.61;74.37
71942;DHT22;59997;53.300;-6.260;2022-09-21T07:08:04;14.75;72.96
71942;DHT22;59997;53.300;-6.260;2022-09-21T07:10:30;14.96;72.87
71942;DHT22;59997;53.300;-6.260;2022-09-21T07:12:55;15.03;72.48
71942;DHT22;59997;53.300;-6.260;2022-09-21T07:15:25;15.07;72.84
71942;DHT22;59997;53.300;-6.260;2022-09-21T07:17:53;15.17;71.90
71942;DHT22;59997;53.300;-6.260;2022-09-21T07:20:18;15.26;70.83
71942;DHT22;59997;53.300;-6.260;2022-09-21T07:22:44;15.20;70.98
71942;DHT22;59997;53.300;-6.260;2022-09-21T07:25:09;15.19;71.24
71942;DHT22;59997;53.300;-6.260;2022-09-21T07:27:36;15.27;71.62
71942;DHT22;59997;53.300;-6.260;2022-09-21T07:30:02;15.31;71.76
71942;DHT22;59997;53.300;-6.260;2022-09-21T07:32:28;15.34;72.10
71942;DHT22;59997;53.300;-6.260;2022-09-21T07:34:55;15.27;71.64
71942;DHT22;59997;53.300;-6.260;2022-09-21T07:37:23;15.30;71.71
71942;DHT22;59997;53.300;-6.260;2022-09-21T07:39:49;15.32;72.38
71942;DHT22;59997;53.300;-6.260;2022-09-21T07:42:15;15.45;72.09
71942;DHT22;59997;53.300;-6.260;2022-09-21T07:44:42;15.65;70.79
71942;DHT22;59997;53.300;-6.260;2022-09-21T07:47:07;15.83;70.19
71942;DHT22;59997;53.300;-6.260;2022-09-21T07:49:33;15.87;69.57
71942;DHT22;59997;53.300;-6.260;2022-09-21T07:51:59;15.82;69.97
71942;DHT22;59997;53.300;-6.260;2022-09-21T07:54:24;15.83;69.92
71942;DHT22;59997;53.300;-6.260;2022-09-21T07:56:50;15.70;70.61
71942;DHT22;59997;53.300;-6.260;2022-09-21T07:59:34;15.76;69.08
71942;DHT22;59997;53.300;-6.260;2022-09-21T08:01:59;15.86;71.02
71942;DHT22;59997;53.300;-6.260;2022-09-21T08:04:25;15.94;68.78
71942;DHT22;59997;53.300;-6.260;2022-09-21T08:06:50;16.04;69.25
71942;DHT22;59997;53.300;-6.260;2022-09-21T08:09:16;16.01;69.89
71942;DHT22;59997;53.300;-6.260;2022-09-21T08:11:41;15.92;69.07
71942;DHT22;59997;53.300;-6.260;2022-09-21T08:14:09;15.92;70.35
71942;DHT22;59997;53.300;-6.260;2022-09-21T08:16:37;15.94;68.48
71942;DHT22;59997;53.300;-6.260;2022-09-21T08:19:03;16.03;69.36
71942;DHT22;59997;53.300;-6.260;2022-09-21T08:21:29;16.14;68.40
71942;DHT22;59997;53.300;-6.260;2022-09-21T08:23:54;16.18;69.99
71942;DHT22;59997;53.300;-6.260;2022-09-21T08:26:20;16.32;69.11
71942;DHT22;59997;53.300;-6.260;2022-09-21T08:28:51;16.51;68.44
71942;DHT22;59997;53.300;-6.260;2022-09-21T08:31:19;16.63;68.15
71942;DHT22;59997;53.300;-6.260;2022-09-21T08:33:46;16.76;66.99
71942;DHT22;59997;53.300;-6.260;2022-09-21T08:36:12;16.59;67.67
71942;DHT22;59997;53.300;-6.260;2022-09-21T08:38:38;16.48;68.03
71942;DHT22;59997;53.300;-6.260;2022-09-21T08:41:14;16.47;68.13
71942;DHT22;59997;53.300;-6.260;2022-09-21T08:43:43;17.01;67.68
71942;DHT22;59997;53.300;-6.260;2022-09-21T08:46:12;17.38;65.20
71942;DHT22;59997;53.300;-6.260;2022-09-21T08:48:43;17.25;66.24
71942;DHT22;59997;53.300;-6.260;2022-09-21T08:51:14;18.05;63.72
71942;DHT22;59997;53.300;-6.260;2022-09-21T08:53:44;18.71;63.77
71942;DHT22;59997;53.300;-6.260;2022-09-21T08:56:12;19.22;62.17
71942;DHT22;59997;53.300;-6.260;2022-09-21T08:58:38;19.57;61.59
71942;DHT22;59997;53.300;-6.260;2022-09-21T09:04:03;19.66;60.32
71942;DHT22;59997;53.300;-6.260;2022-09-21T09:19:48;21.43;56.33
71942;DHT22;59997;53.300;-6.260;2022-09-21T09:22:28;21.82;54.96
71942;DHT22;59997;53.300;-6.260;2022-09-21T09:24:59;21.41;53.52
71942;DHT22;59997;53.300;-6.260;2022-09-21T09:27:37;21.59;54.80
71942;DHT22;59997;53.300;-6.260;2022-09-21T09:37:55;22.50;52.09
71942;DHT22;59997;53.300;-6.260;2022-09-21T09:51:58;19.96;61.20
71942;DHT22;59997;53.300;-6.260;2022-09-21T09:54:26;20.50;61.02
71942;DHT22;59997;53.300;-6.260;2022-09-21T09:56:54;20.11;60.63
71942;DHT22;59997;53.300;-6.260;2022-09-21T09:59:29;19.47;63.15
71942;DHT22;59997;53.300;-6.260;2022-09-21T10:02:18;19.77;61.51
71942;DHT22;59997;53.300;-6.260;2022-09-21T10:04:59;20.53;61.86
71942;DHT22;59997;53.300;-6.260;2022-09-21T10:07:42;20.79;59.86
71942;DHT22;59997;53.300;-6.260;2022-09-21T10:10:31;20.15;61.06
71942;DHT22;59997;53.300;-6.260;2022-09-21T10:13:14;19.92;62.89
71942;DHT22;59997;53.300;-6.260;2022-09-21T10:15:56;19.89;62.98
71942;DHT22;59997;53.300;-6.260;2022-09-21T10:18:25;19.45;62.56
71942;DHT22;59997;53.300;-6.260;2022-09-21T10:21:05;19.19;64.60
71942;DHT22;59997;53.300;-6.260;2022-09-21T10:23:31;19.29;64.66
71942;DHT22;59997;53.300;-6.260;2022-09-21T10:26:04;19.29;65.12
71942;DHT22;59997;53.300;-6.260;2022-09-21T10:28:32;19.23;65.44
71942;DHT22;59997;53.300;-6.260;2022-09-21T10:31:08;19.29;66.14
71942;DHT22;59997;53.300;-6.260;2022-09-21T10:33:45;19.32;65.08
71942;DHT22;59997;53.300;-6.260;2022-09-21T10:36:32;19.22;65.37
71942;DHT22;59997;53.300;-6.260;2022-09-21T10:39:22;18.81;66.59
71942;DHT22;59997;53.300;-6.260;2022-09-21T10:41:50;18.55;65.31
71942;DHT22;59997;53.300;-6.260;2022-09-21T10:44:18;18.45;66.78
71942;DHT22;59997;53.300;-6.260;2022-09-21T10:46:45;18.33;68.46
71942;DHT22;59997;53.300;-6.260;2022-09-21T10:49:14;18.29;67.76
71942;DHT22;59997;53.300;-6.260;2022-09-21T10:51:44;18.14;67.91
71942;DHT22;59997;53.300;-6.260;2022-09-21T10:54:10;18.11;68.23
71942;DHT22;59997;53.300;-6.260;2022-09-21T10:56:36;18.12;68.86
71942;DHT22;59997;53.300;-6.260;2022-09-21T10:59:26;18.14;68.82
71942;DHT22;59997;53.300;-6.260;2022-09-21T11:01:55;18.18;69.61
71942;DHT22;59997;53.300;-6.260;2022-09-21T11:07:08;18.32;69.77
71942;DHT22;59997;53.300;-6.260;2022-09-21T11:09:57;18.25;69.06
71942;DHT22;59997;53.300;-6.260;2022-09-21T11:14:58;18.36;69.09
71942;DHT22;59997;53.300;-6.260;2022-09-21T11:18:04;18.57;69.86
71942;DHT22;59997;53.300;-6.260;2022-09-21T11:26:12;19.54;66.47
71942;DHT22;59997;53.300;-6.260;2022-09-21T11:37:48;19.43;69.16
71942;DHT22;59997;53.300;-6.260;2022-09-21T11:56:48;22.24;57.92
71942;DHT22;59997;53.300;-6.260;2022-09-21T12:02:30;20.67;63.35
71942;DHT22;59997;53.300;-6.260;2022-09-21T12:05:05;20.43;63.78
71942;DHT22;59997;53.300;-6.260;2022-09-21T12:16:02;19.73;65.11
71942;DHT22;59997;53.300;-6.260;2022-09-21T12:18:40;19.67;66.66
71942;DHT22;59997;53.300;-6.260;2022-09-21T12:21:13;19.56;67.54
71942;DHT22;59997;53.300;-6.260;2022-09-21T12:23:55;19.49;67.70
71942;DHT22;59997;53.300;-6.260;2022-09-21T12:26:28;19.32;67.35
71942;DHT22;59997;53.300;-6.260;2022-09-21T12:29:00;19.04;68.37
71942;DHT22;59997;53.300;-6.260;2022-09-21T12:31:38;18.74;68.88
71942;DHT22;59997;53.300;-6.260;2022-09-21T12:34:52;18.84;69.57
71942;DHT22;59997;53.300;-6.260;2022-09-21T12:39:29;19.11;69.31
71942;DHT22;59997;53.300;-6.260;2022-09-21T12:42:09;19.19;68.42
71942;DHT22;59997;53.300;-6.260;2022-09-21T12:44:46;19.09;68.22
71942;DHT22;59997;53.300;-6.260;2022-09-21T12:50:35;19.05;69.02
71942;DHT22;59997;53.300;-6.260;2022-09-21T12:52:59;19.11;69.05
71942;DHT22;59997;53.300;-6.260;2022-09-21T13:03:46;19.02;70.16
71942;DHT22;59997;53.300;-6.260;2022-09-21T13:09:11;18.74;71.08
71942;DHT22;59997;53.300;-6.260;2022-09-21T13:12:24;18.50;72.30
71942;DHT22;59997;53.300;-6.260;2022-09-21T13:14:56;18.48;72.37
71942;DHT22;59997;53.300;-6.260;2022-09-21T13:17:26;18.45;72.34
71942;DHT22;59997;53.300;-6.260;2022-09-21T13:20:19;18.59;71.99
71942;DHT22;59997;53.300;-6.260;2022-09-21T13:22:46;18.59;72.07
71942;DHT22;59997;53.300;-6.260;2022-09-21T13:25:20;18.68;72.42
71942;DHT22;59997;53.300;-6.260;2022-09-21T13:41:25;19.11;70.48
71942;DHT22;59997;53.300;-6.260;2022-09-21T13:51:48;19.75;69.42
71942;DHT22;59997;53.300;-6.260;2022-09-21T13:54:15;19.91;68.96
71942;DHT22;59997;53.300;-6.260;2022-09-21T13:56:42;19.99;68.09
71942;DHT22;59997;53.300;-6.260;2022-09-21T13:59:20;19.96;68.36
71942;DHT22;59997;53.300;-6.260;2022-09-21T14:01:47;19.68;69.48
71942;DHT22;59997;53.300;-6.260;2022-09-21T14:04:29;19.39;69.40
71942;DHT22;59997;53.300;-6.260;2022-09-21T14:06:56;19.26;70.25
71942;DHT22;59997;53.300;-6.260;2022-09-21T14:09:29;19.09;70.42
71942;DHT22;59997;53.300;-6.260;2022-09-21T14:12:00;18.97;69.74
71942;DHT22;59997;53.300;-6.260;2022-09-21T14:14:35;18.94;70.17
71942;DHT22;59997;53.300;-6.260;2022-09-21T14:17:42;18.90;70.03
71942;DHT22;59997;53.300;-6.260;2022-09-21T14:20:31;19.01;71.16
71942;DHT22;59997;53.300;-6.260;2022-09-21T14:25:57;19.33;69.60
71942;DHT22;59997;53.300;-6.260;2022-09-21T14:28:36;19.50;70.03
71942;DHT22;59997;53.300;-6.260;2022-09-21T14:31:13;20.25;67.79
71942;DHT22;59997;53.300;-6.260;2022-09-21T14:33:46;20.20;67.61
71942;DHT22;59997;53.300;-6.260;2022-09-21T14:36:17;20.05;67.59
71942;DHT22;59997;53.300;-6.260;2022-09-21T14:38:56;19.94;66.91
71942;DHT22;59997;53.300;-6.260;2022-09-21T14:41:31;19.79;67.18
71942;DHT22;59997;53.300;-6.260;2022-09-21T14:44:01;19.64;67.02
71942;DHT22;59997;53.300;-6.260;2022-09-21T14:46:49;19.50;66.65
71942;DHT22;59997;53.300;-6.260;2022-09-21T14:50:06;19.53;67.37
71942;DHT22;59997;53.300;-6.260;2022-09-21T14:53:00;19.49;68.13
71942;DHT22;59997;53.300;-6.260;2022-09-21T15:09:36;20.18;69.21
71942;DHT22;59997;53.300;-6.260;2022-09-21T15:12:51;20.26;69.45
71942;DHT22;59997;53.300;-6.260;2022-09-21T15:15:31;20.39;67.55
71942;DHT22;59997;53.300;-6.260;2022-09-21T15:17:59;20.40;66.87
71942;DHT22;59997;53.300;-6.260;2022-09-21T15:20:29;20.32;67.48
71942;DHT22;59997;53.300;-6.260;2022-09-21T15:22:57;20.02;66.98
71942;DHT22;59997;53.300;-6.260;2022-09-21T15:25:25;19.84;64.92
71942;DHT22;59997;53.300;-6.260;2022-09-21T15:27:52;19.67;65.57
71942;DHT22;59997;53.300;-6.260;2022-09-21T15:30:27;19.70;66.53
71942;DHT22;59997;53.300;-6.260;2022-09-21T15:32:58;19.57;66.50
71942;DHT22;59997;53.300;-6.260;2022-09-21T15:35:27;19.57;68.09
71942;DHT22;59997;53.300;-6.260;2022-09-21T15:37:54;19.56;66.06
71942;DHT22;59997;53.300;-6.260;2022-09-21T15:40:23;19.60;65.79
71942;DHT22;59997;53.300;-6.260;2022-09-21T15:45:30;19.74;64.60
71942;DHT22;59997;53.300;-6.260;2022-09-21T15:47:58;19.73;63.49
71942;DHT22;59997;53.300;-6.260;2022-09-21T15:50:25;19.68;66.43
71942;DHT22;59997;53.300;-6.260;2022-09-21T15:53:15;19.68;65.25
71942;DHT22;59997;53.300;-6.260;2022-09-21T15:55:47;19.57;66.05
71942;DHT22;59997;53.300;-6.260;2022-09-21T15:58:42;19.57;66.94
71942;DHT22;59997;53.300;-6.260;2022-09-21T16:01:12;19.53;65.72
71942;DHT22;59997;53.300;-6.260;2022-09-21T16:03:40;19.51;64.99
71942;DHT22;59997;53.300;-6.260;2022-09-21T16:06:26;19.36;64.34
71942;DHT22;59997;53.300;-6.260;2022-09-21T16:08:52;19.39;64.04
71942;DHT22;59997;53.300;-6.260;2022-09-21T16:11:33;19.40;65.05
71942;DHT22;59997;53.300;-6.260;2022-09-21T16:14:13;19.29;64.07
71942;DHT22;59997;53.300;-6.260;2022-09-21T16:17:27;19.32;65.09
71942;DHT22;59997;53.300;-6.260;2022-09-21T16:24:54;19.35;65.75
71942;DHT22;59997;53.300;-6.260;2022-09-21T16:27:25;19.35;64.15
71942;DHT22;59997;53.300;-6.260;2022-09-21T16:29:52;19.35;65.03
71942;DHT22;59997;53.300;-6.260;2022-09-21T16:34:45;19.11;66.38
71942;DHT22;59997;53.300;-6.260;2022-09-21T16:39:52;18.80;66.37
71942;DHT22;59997;53.300;-6.260;2022-09-21T16:42:18;18.59;66.25
71942;DHT22;59997;53.300;-6.260;2022-09-21T16:44:45;18.49;66.72
71942;DHT22;59997;53.300;-6.260;2022-09-21T16:47:17;18.36;67.69
71942;DHT22;59997;53.300;-6.260;2022-09-21T16:49:46;18.19;67.28
71942;DHT22;59997;53.300;-6.260;2022-09-21T16:52:12;18.12;67.49
71942;DHT22;59997;53.300;-6.260;2022-09-21T16:54:40;18.05;67.59
71942;DHT22;59997;53.300;-6.260;2022-09-21T16:57:06;17.94;67.91
71942;DHT22;59997;53.300;-6.260;2022-09-21T16:59:31;17.97;68.25
71942;DHT22;59997;53.300;-6.260;2022-09-21T17:01:59;17.96;68.36
71942;DHT22;59997;53.300;-6.260;2022-09-21T17:04:27;18.00;68.56
71942;DHT22;59997;53.300;-6.260;2022-09-21T17:06:53;18.02;68.03
71942;DHT22;59997;53.300;-6.260;2022-09-21T17:09:32;18.05;68.13
71942;DHT22;59997;53.300;-6.260;2022-09-21T17:12:01;18.11;67.66
71942;DHT22;59997;53.300;-6.260;2022-09-21T17:14:29;18.16;67.76
71942;DHT22;59997;53.300;-6.260;2022-09-21T17:17:00;18.15;68.15
71942;DHT22;59997;53.300;-6.260;2022-09-21T17:19:29;18.15;68.30
71942;DHT22;59997;53.300;-6.260;2022-09-21T17:21:55;18.05;68.64
71942;DHT22;59997;53.300;-6.260;2022-09-21T17:24:21;17.93;69.54
71942;DHT22;59997;53.300;-6.260;2022-09-21T17:26:47;17.87;69.86
71942;DHT22;59997;53.300;-6.260;2022-09-21T17:29:24;17.67;69.59
71942;DHT22;59997;53.300;-6.260;2022-09-21T17:31:55;17.57;70.30
71942;DHT22;59997;53.300;-6.260;2022-09-21T17:34:27;17.40;71.44
71942;DHT22;59997;53.300;-6.260;2022-09-21T17:36:54;17.25;71.54
71942;DHT22;59997;53.300;-6.260;2022-09-21T17:39:21;17.15;71.30
71942;DHT22;59997;53.300;-6.260;2022-09-21T17:41:55;17.29;70.83
71942;DHT22;59997;53.300;-6.260;2022-09-21T17:47:43;17.15;71.64
71942;DHT22;59997;53.300;-6.260;2022-09-21T17:52:38;17.03;72.10
71942;DHT22;59997;53.300;-6.260;2022-09-21T17:55:22;17.07;71.21
71942;DHT22;59997;53.300;-6.260;2022-09-21T18:00:51;16.95;71.40
71942;DHT22;59997;53.300;-6.260;2022-09-21T18:03:24;16.88;72.30
71942;DHT22;59997;53.300;-6.260;2022-09-21T18:05:52;16.80;71.98
71942;DHT22;59997;53.300;-6.260;2022-09-21T18:08:29;16.81;71.55
71942;DHT22;59997;53.300;-6.260;2022-09-21T18:13:51;16.60;72.45
71942;DHT22;59997;53.300;-6.260;2022-09-21T18:16:25;16.48;72.87
71942;DHT22;59997;53.300;-6.260;2022-09-21T18:21:26;16.66;71.99
71942;DHT22;59997;53.300;-6.260;2022-09-21T18:26:23;16.59;71.36
71942;DHT22;59997;53.300;-6.260;2022-09-21T18:28:50;16.59;71.34
71942;DHT22;59997;53.300;-6.260;2022-09-21T18:34:58;16.52;71.48
71942;DHT22;59997;53.300;-6.260;2022-09-21T18:42:42;16.27;73.16
71942;DHT22;59997;53.300;-6.260;2022-09-21T18:45:26;16.27;73.28
71942;DHT22;59997;53.300;-6.260;2022-09-21T18:55:53;15.96;74.90
71942;DHT22;59997;53.300;-6.260;2022-09-21T18:58:18;15.92;75.29
71942;DHT22;59997;53.300;-6.260;2022-09-21T19:00:44;16.07;74.82
71942;DHT22;59997;53.300;-6.260;2022-09-21T19:03:12;16.07;75.02
71942;DHT22;59997;53.300;-6.260;2022-09-21T19:05:44;16.07;75.51
71942;DHT22;59997;53.300;-6.260;2022-09-21T19:08:18;16.07;75.36
71942;DHT22;59997;53.300;-6.260;2022-09-21T19:10:59;16.14;75.25
71942;DHT22;59997;53.300;-6.260;2022-09-21T19:13:52;16.11;75.47
71942;DHT22;59997;53.300;-6.260;2022-09-21T19:22:13;16.18;75.37
71942;DHT22;59997;53.300;-6.260;2022-09-21T19:30:23;15.94;76.72
71942;DHT22;59997;53.300;-6.260;2022-09-21T19:32:51;15.87;77.18
71942;DHT22;59997;53.300;-6.260;2022-09-21T19:37:45;15.89;77.04
71942;DHT22;59997;53.300;-6.260;2022-09-21T19:40:15;15.78;76.93
71942;DHT22;59997;53.300;-6.260;2022-09-21T19:46:19;15.83;76.90
71942;DHT22;59997;53.300;-6.260;2022-09-21T19:48:53;15.85;76.53
71942;DHT22;59997;53.300;-6.260;2022-09-21T19:51:42;15.76;77.24
71942;DHT22;59997;53.300;-6.260;2022-09-21T19:54:13;15.72;77.11
71942;DHT22;59997;53.300;-6.260;2022-09-21T19:56:57;15.67;77.84
71942;DHT22;59997;53.300;-6.260;2022-09-21T19:59:42;15.62;77.91
71942;DHT22;59997;53.300;-6.260;2022-09-21T20:02:23;15.57;78.08
71942;DHT22;59997;53.300;-6.260;2022-09-21T20:15:24;15.81;77.20
71942;DHT22;59997;53.300;-6.260;2022-09-21T20:18:19;15.69;77.59
71942;DHT22;59997;53.300;-6.260;2022-09-21T20:20:46;15.63;77.73
71942;DHT22;59997;53.300;-6.260;2022-09-21T20:23:12;15.63;77.35
71942;DHT22;59997;53.300;-6.260;2022-09-21T20:25:48;15.70;76.96
71942;DHT22;59997;53.300;-6.260;2022-09-21T20:28:15;15.89;76.81
71942;DHT22;59997;53.300;-6.260;2022-09-21T20:30:41;15.94;76.66
71942;DHT22;59997;53.300;-6.260;2022-09-21T20:33:16;15.92;76.66
71942;DHT22;59997;53.300;-6.260;2022-09-21T20:35:47;15.96;76.61
71942;DHT22;59997;53.300;-6.260;2022-09-21T20:38:13;15.90;76.46
71942;DHT22;59997;53.300;-6.260;2022-09-21T20:40:39;15.97;76.54
71942;DHT22;59997;53.300;-6.260;2022-09-21T20:43:07;15.93;77.13
71942;DHT22;59997;53.300;-6.260;2022-09-21T20:45:33;15.93;76.89
71942;DHT22;59997;53.300;-6.260;2022-09-21T20:47:59;15.92;77.19
71942;DHT22;59997;53.300;-6.260;2022-09-21T20:50:46;15.93;76.37
71942;DHT22;59997;53.300;-6.260;2022-09-21T20:53:13;16.01;76.40
71942;DHT22;59997;53.300;-6.260;2022-09-21T20:55:39;16.08;75.81
71942;DHT22;59997;53.300;-6.260;2022-09-21T20:58:06;16.20;75.50
71942;DHT22;59997;53.300;-6.260;2022-09-21T21:00:31;16.29;74.90
71942;DHT22;59997;53.300;-6.260;2022-09-21T21:02:57;16.20;76.02
71942;DHT22;59997;53.300;-6.260;2022-09-21T21:05:25;16.11;76.15
71942;DHT22;59997;53.300;-6.260;2022-09-21T21:07:54;16.16;76.27
71942;DHT22;59997;53.300;-6.260;2022-09-21T21:10:19;16.14;76.81
71942;DHT22;59997;53.300;-6.260;2022-09-21T21:12:46;16.13;76.24
71942;DHT22;59997;53.300;-6.260;2022-09-21T21:15:11;16.08;76.49
71942;DHT22;59997;53.300;-6.260;2022-09-21T21:17:37;16.18;76.19
71942;DHT22;59997;53.300;-6.260;2022-09-21T21:20:04;16.17;76.09
71942;DHT22;59997;53.300;-6.260;2022-09-21T21:22:30;16.16;76.79
71942;DHT22;59997;53.300;-6.260;2022-09-21T21:24:56;16.11;76.73
71942;DHT22;59997;53.300;-6.260;2022-09-21T21:27:23;16.11;76.54
71942;DHT22;59997;53.300;-6.260;2022-09-21T21:29:50;16.11;76.64
71942;DHT22;59997;53.300;-6.260;2022-09-21T21:32:18;16.07;77.14
71942;DHT22;59997;53.300;-6.260;2022-09-21T21:34:43;16.04;77.25
71942;DHT22;59997;53.300;-6.260;2022-09-21T21:37:11;16.03;77.52
71942;DHT22;59997;53.300;-6.260;2022-09-21T21:39:36;16.01;77.65
71942;DHT22;59997;53.300;-6.260;2022-09-21T21:42:02;16.06;77.46
71942;DHT22;59997;53.300;-6.260;2022-09-21T21:44:28;16.07;77.63
71942;DHT22;59997;53.300;-6.260;2022-09-21T21:46:53;16.08;77.25
71942;DHT22;59997;53.300;-6.260;2022-09-21T21:49:21;16.11;77.33
71942;DHT22;59997;53.300;-6.260;2022-09-21T21:51:47;16.17;77.14
71942;DHT22;59997;53.300;-6.260;2022-09-21T21:54:19;16.17;77.41
71942;DHT22;59997;53.300;-6.260;2022-09-21T21:56:46;16.14;77.62
71942;DHT22;59997;53.300;-6.260;2022-09-21T21:59:12;16.14;77.31
71942;DHT22;59997;53.300;-6.260;2022-09-21T22:01:37;16.20;77.32
71942;DHT22;59997;53.300;-6.260;2022-09-21T22:04:04;16.18;77.21
71942;DHT22;59997;53.300;-6.260;2022-09-21T22:06:32;16.24;77.46
71942;DHT22;59997;53.300;-6.260;2022-09-21T22:08:58;16.21;77.62
71942;DHT22;59997;53.300;-6.260;2022-09-21T22:11:25;16.14;77.99
71942;DHT22;59997;53.300;-6.260;2022-09-21T22:13:52;16.11;77.87
71942;DHT22;59997;53.300;-6.260;2022-09-21T22:16:23;16.17;77.85
71942;DHT22;59997;53.300;-6.260;2022-09-21T22:18:49;16.16;77.68
71942;DHT22;59997;53.300;-6.260;2022-09-21T22:21:18;16.22;77.44
71942;DHT22;59997;53.300;-6.260;2022-09-21T22:24:03;16.22;77.24
71942;DHT22;59997;53.300;-6.260;2022-09-21T22:26:32;16.31;77.18
71942;DHT22;59997;53.300;-6.260;2022-09-21T22:29:00;16.25;77.06
71942;DHT22;59997;53.300;-6.260;2022-09-21T22:31:29;16.22;77.00
71942;DHT22;59997;53.300;-6.260;2022-09-21T22:33:57;16.27;76.74
71942;DHT22;59997;53.300;-6.260;2022-09-21T22:36:27;16.24;76.77
71942;DHT22;59997;53.300;-6.260;2022-09-21T22:38:53;16.24;76.60
71942;DHT22;59997;53.300;-6.260;2022-09-21T22:41:21;16.31;75.79
71942;DHT22;59997;53.300;-6.260;2022-09-21T22:43:47;16.34;76.10
71942;DHT22;59997;53.300;-6.260;2022-09-21T22:46:13;16.34;75.82
71942;DHT22;59997;53.300;-6.260;2022-09-21T22:48:41;16.29;76.19
71942;DHT22;59997;53.300;-6.260;2022-09-21T22:51:06;16.36;76.06
71942;DHT22;59997;53.300;-6.260;2022-09-21T22:53:32;16.36;76.11
71942;DHT22;59997;53.300;-6.260;2022-09-21T22:58:30;16.31;76.68
71942;DHT22;59997;53.300;-6.260;2022-09-21T23:01:17;16.34;77.05
71942;DHT22;59997;53.300;-6.260;2022-09-21T23:03:44;16.31;77.07
71942;DHT22;59997;53.300;-6.260;2022-09-21T23:06:12;16.34;77.18
71942;DHT22;59997;53.300;-6.260;2022-09-21T23:08:38;16.31;77.27
71942;DHT22;59997;53.300;-6.260;2022-09-21T23:11:17;16.21;77.61
71942;DHT22;59997;53.300;-6.260;2022-09-21T23:13:44;16.18;77.69
71942;DHT22;59997;53.300;-6.260;2022-09-21T23:16:10;16.21;77.73
71942;DHT22;59997;53.300;-6.260;2022-09-21T23:18:37;16.20;77.65
71942;DHT22;59997;53.300;-6.260;2022-09-21T23:21:07;16.22;78.10
71942;DHT22;59997;53.300;-6.260;2022-09-21T23:23:33;16.18;78.29
71942;DHT22;59997;53.300;-6.260;2022-09-21T23:26:00;16.11;78.62
71942;DHT22;59997;53.300;-6.260;2022-09-21T23:28:26;16.13;78.74
71942;DHT22;59997;53.300;-6.260;2022-09-21T23:30:55;16.20;78.80
71942;DHT22;59997;53.300;-6.260;2022-09-21T23:33:20;16.20;79.03
71942;DHT22;59997;53.300;-6.260;2022-09-21T23:35:49;16.20;79.56
71942;DHT22;59997;53.300;-6.260;2022-09-21T23:38:14;16.18;79.98
71942;DHT22;59997;53.300;-6.260;2022-09-21T23:40:40;16.18;80.38
71942;DHT22;59997;53.300;-6.260;2022-09-21T23:43:05;16.16;80.69
71942;DHT22;59997;53.300;-6.260;2022-09-21T23:45:31;16.11;80.84
71942;DHT22;59997;53.300;-6.260;2022-09-21T23:47:56;16.11;81.29
71942;DHT22;59997;53.300;-6.260;2022-09-21T23:50:22;16.10;81.52
71942;DHT22;59997;53.300;-6.260;2022-09-21T23:52:47;16.03;81.70
71942;DHT22;59997;53.300;-6.260;2022-09-21T23:55:13;16.01;81.60
71942;DHT22;59997;53.300;-6.260;2022-09-21T23:57:38;16.04;81.34
